sensor_id;sensor_type;location;lat;lon;timestamp;P1;durP1;ratioP1;P2;durP2;ratioP2
18659;SDS011;9459;50.254;19.014;2023-03-31T00:01:07;19.23;;;13.70;;
18659;SDS011;9459;50.254;19.014;2023-03-31T00:03:36;19.35;;;14.32;;
18659;SDS011;9459;50.254;19.014;2023-03-31T00:06:12;16.80;;;13.80;;
18659;SDS011;9459;50.254;19.014;2023-03-31T00:08:45;23.20;;;14.25;;
18659;SDS011;9459;50.254;19.014;2023-03-31T00:11:18;20.15;;;14.18;;
18659;SDS011;9459;50.254;19.014;2023-03-31T00:13:48;22.13;;;14.43;;
18659;SDS011;9459;50.254;19.014;2023-03-31T00:16:16;17.77;;;13.70;;
18659;SDS011;9459;50.254;19.014;2023-03-31T00:18:45;17.75;;;13.93;;
18659;SDS011;9459;50.254;19.014;2023-03-31T00:21:19;19.45;;;13.90;;
18659;SDS011;9459;50.254;19.014;2023-03-31T00:23:52;20.17;;;14.00;;
18659;SDS011;9459;50.254;19.014;2023-03-31T00:26:21;18.10;;;13.48;;
18659;SDS011;9459;50.254;19.014;2023-03-31T00:28:50;19.38;;;15.50;;
18659;SDS011;9459;50.254;19.014;2023-03-31T00:31:19;23.30;;;17.23;;
18659;SDS011;9459;50.254;19.014;2023-03-31T00:33:48;24.52;;;17.88;;
18659;SDS011;9459;50.254;19.014;2023-03-31T00:36:18;27.10;;;19.30;;
18659;SDS011;9459;50.254;19.014;2023-03-31T00:38:53;24.77;;;19.08;;
18659;SDS011;9459;50.254;19.014;2023-03-31T00:41:22;25.88;;;18.05;;
18659;SDS011;9459;50.254;19.014;2023-03-31T00:44:09;20.48;;;15.07;;
18659;SDS011;9459;50.254;19.014;2023-03-31T00:46:41;19.88;;;15.20;;
18659;SDS011;9459;50.254;19.014;2023-03-31T00:49:13;20.35;;;15.20;;
18659;SDS011;9459;50.254;19.014;2023-03-31T00:51:48;21.77;;;16.73;;
18659;SDS011;9459;50.254;19.014;2023-03-31T00:54:18;22.33;;;16.77;;
18659;SDS011;9459;50.254;19.014;2023-03-31T00:56:47;23.80;;;18.67;;
18659;SDS011;9459;50.254;19.014;2023-03-31T00:59:18;24.38;;;17.52;;
18659;SDS011;9459;50.254;19.014;2023-03-31T01:01:48;26.05;;;20.52;;
18659;SDS011;9459;50.254;19.014;2023-03-31T01:04:18;25.67;;;20.48;;
18659;SDS011;9459;50.254;19.014;2023-03-31T01:06:52;24.98;;;18.83;;
18659;SDS011;9459;50.254;19.014;2023-03-31T01:09:28;23.50;;;19.75;;
18659;SDS011;9459;50.254;19.014;2023-03-31T01:12:02;22.55;;;17.95;;
18659;SDS011;9459;50.254;19.014;2023-03-31T01:14:33;22.70;;;16.80;;
18659;SDS011;9459;50.254;19.014;2023-03-31T01:17:02;19.88;;;16.35;;
18659;SDS011;9459;50.254;19.014;2023-03-31T01:19:34;22.17;;;16.08;;
18659;SDS011;9459;50.254;19.014;2023-03-31T01:28:07;18.65;;;14.00;;
18659;SDS011;9459;50.254;19.014;2023-03-31T01:43:18;14.70;;;11.77;;
18659;SDS011;9459;50.254;19.014;2023-03-31T01:45:53;17.45;;;12.73;;
18659;SDS011;9459;50.254;19.014;2023-03-31T01:48:27;16.98;;;13.07;;
18659;SDS011;9459;50.254;19.014;2023-03-31T01:51:02;17.65;;;13.23;;
18659;SDS011;9459;50.254;19.014;2023-03-31T01:53:34;14.18;;;11.52;;
18659;SDS011;9459;50.254;19.014;2023-03-31T01:56:09;17.77;;;12.93;;
18659;SDS011;9459;50.254;19.014;2023-03-31T01:58:43;15.55;;;11.88;;
18659;SDS011;9459;50.254;19.014;2023-03-31T02:01:19;16.10;;;12.93;;
18659;SDS011;9459;50.254;19.014;2023-03-31T02:03:52;17.83;;;12.52;;
18659;SDS011;9459;50.254;19.014;2023-03-31T02:06:24;16.00;;;12.02;;
18659;SDS011;9459;50.254;19.014;2023-03-31T02:08:57;15.85;;;12.10;;
18659;SDS011;9459;50.254;19.014;2023-03-31T02:11:28;18.83;;;12.02;;
18659;SDS011;9459;50.254;19.014;2023-03-31T02:13:59;15.90;;;11.68;;
18659;SDS011;9459;50.254;19.014;2023-03-31T02:16:30;13.82;;;11.45;;
18659;SDS011;9459;50.254;19.014;2023-03-31T02:19:00;14.57;;;11.75;;
18659;SDS011;9459;50.254;19.014;2023-03-31T02:21:32;14.25;;;11.63;;
18659;SDS011;9459;50.254;19.014;2023-03-31T02:24:03;13.73;;;11.30;;
18659;SDS011;9459;50.254;19.014;2023-03-31T02:26:35;13.02;;;10.57;;
18659;SDS011;9459;50.254;19.014;2023-03-31T02:29:06;12.95;;;11.05;;
18659;SDS011;9459;50.254;19.014;2023-03-31T02:31:37;15.38;;;11.65;;
18659;SDS011;9459;50.254;19.014;2023-03-31T02:34:09;15.50;;;11.52;;
18659;SDS011;9459;50.254;19.014;2023-03-31T02:36:39;17.30;;;11.75;;
18659;SDS011;9459;50.254;19.014;2023-03-31T02:39:08;16.15;;;11.23;;
18659;SDS011;9459;50.254;19.014;2023-03-31T02:41:39;14.15;;;10.90;;
18659;SDS011;9459;50.254;19.014;2023-03-31T02:44:10;15.73;;;12.00;;
18659;SDS011;9459;50.254;19.014;2023-03-31T02:46:39;13.10;;;10.68;;
18659;SDS011;9459;50.254;19.014;2023-03-31T02:49:07;13.45;;;10.95;;
18659;SDS011;9459;50.254;19.014;2023-03-31T02:51:48;12.73;;;10.23;;
18659;SDS011;9459;50.254;19.014;2023-03-31T02:54:39;13.63;;;10.23;;
18659;SDS011;9459;50.254;19.014;2023-03-31T02:57:18;15.93;;;10.15;;
18659;SDS011;9459;50.254;19.014;2023-03-31T02:59:59;13.55;;;10.38;;
18659;SDS011;9459;50.254;19.014;2023-03-31T03:02:37;14.77;;;10.80;;
18659;SDS011;9459;50.254;19.014;2023-03-31T03:05:18;12.68;;;10.18;;
18659;SDS011;9459;50.254;19.014;2023-03-31T03:07:54;12.48;;;10.15;;
18659;SDS011;9459;50.254;19.014;2023-03-31T03:10:27;13.63;;;10.30;;
18659;SDS011;9459;50.254;19.014;2023-03-31T03:12:59;14.30;;;10.32;;
18659;SDS011;9459;50.254;19.014;2023-03-31T03:15:35;12.88;;;10.45;;
18659;SDS011;9459;50.254;19.014;2023-03-31T03:18:05;11.70;;;9.50;;
18659;SDS011;9459;50.254;19.014;2023-03-31T03:20:33;14.07;;;9.35;;
18659;SDS011;9459;50.254;19.014;2023-03-31T03:23:02;10.15;;;8.68;;
18659;SDS011;9459;50.254;19.014;2023-03-31T03:25:30;12.57;;;9.18;;
18659;SDS011;9459;50.254;19.014;2023-03-31T03:28:00;10.85;;;8.80;;
18659;SDS011;9459;50.254;19.014;2023-03-31T03:30:28;11.63;;;8.80;;
18659;SDS011;9459;50.254;19.014;2023-03-31T03:32:58;12.07;;;8.70;;
18659;SDS011;9459;50.254;19.014;2023-03-31T03:35:27;11.30;;;8.77;;
18659;SDS011;9459;50.254;19.014;2023-03-31T03:37:55;10.18;;;8.35;;
18659;SDS011;9459;50.254;19.014;2023-03-31T03:40:23;11.32;;;8.10;;
18659;SDS011;9459;50.254;19.014;2023-03-31T03:42:52;13.45;;;8.68;;
18659;SDS011;9459;50.254;19.014;2023-03-31T03:45:20;11.73;;;8.50;;
18659;SDS011;9459;50.254;19.014;2023-03-31T03:47:49;13.00;;;9.27;;
18659;SDS011;9459;50.254;19.014;2023-03-31T03:50:19;10.63;;;8.45;;
18659;SDS011;9459;50.254;19.014;2023-03-31T03:52:48;13.32;;;9.00;;
18659;SDS011;9459;50.254;19.014;2023-03-31T03:55:16;13.13;;;9.70;;
18659;SDS011;9459;50.254;19.014;2023-03-31T03:57:45;11.57;;;9.25;;
18659;SDS011;9459;50.254;19.014;2023-03-31T04:00:13;11.48;;;8.57;;
18659;SDS011;9459;50.254;19.014;2023-03-31T04:02:43;11.15;;;8.90;;
18659;SDS011;9459;50.254;19.014;2023-03-31T04:05:11;10.90;;;9.15;;
18659;SDS011;9459;50.254;19.014;2023-03-31T04:07:41;11.45;;;9.18;;
18659;SDS011;9459;50.254;19.014;2023-03-31T04:10:09;11.85;;;9.68;;
18659;SDS011;9459;50.254;19.014;2023-03-31T04:12:38;11.05;;;9.02;;
18659;SDS011;9459;50.254;19.014;2023-03-31T04:15:07;10.35;;;8.45;;
18659;SDS011;9459;50.254;19.014;2023-03-31T04:17:36;12.93;;;9.20;;
18659;SDS011;9459;50.254;19.014;2023-03-31T04:20:05;11.82;;;9.05;;
18659;SDS011;9459;50.254;19.014;2023-03-31T04:22:36;16.40;;;9.63;;
18659;SDS011;9459;50.254;19.014;2023-03-31T04:25:09;13.15;;;10.00;;
18659;SDS011;9459;50.254;19.014;2023-03-31T04:27:43;9.93;;;8.38;;
18659;SDS011;9459;50.254;19.014;2023-03-31T04:30:13;12.02;;;9.80;;
18659;SDS011;9459;50.254;19.014;2023-03-31T04:32:49;12.60;;;9.82;;
18659;SDS011;9459;50.254;19.014;2023-03-31T04:35:19;13.38;;;10.75;;
18659;SDS011;9459;50.254;19.014;2023-03-31T04:37:48;15.40;;;11.10;;
18659;SDS011;9459;50.254;19.014;2023-03-31T04:40:19;14.93;;;10.95;;
18659;SDS011;9459;50.254;19.014;2023-03-31T04:42:48;16.73;;;11.95;;
18659;SDS011;9459;50.254;19.014;2023-03-31T04:45:16;14.40;;;10.27;;
18659;SDS011;9459;50.254;19.014;2023-03-31T04:47:45;18.77;;;12.55;;
18659;SDS011;9459;50.254;19.014;2023-03-31T04:50:14;16.35;;;11.35;;
18659;SDS011;9459;50.254;19.014;2023-03-31T04:52:43;16.83;;;11.68;;
18659;SDS011;9459;50.254;19.014;2023-03-31T04:55:11;15.65;;;12.00;;
18659;SDS011;9459;50.254;19.014;2023-03-31T04:57:42;16.33;;;12.13;;
18659;SDS011;9459;50.254;19.014;2023-03-31T05:00:11;16.67;;;12.07;;
18659;SDS011;9459;50.254;19.014;2023-03-31T05:02:40;16.85;;;12.70;;
18659;SDS011;9459;50.254;19.014;2023-03-31T05:05:09;19.02;;;12.60;;
18659;SDS011;9459;50.254;19.014;2023-03-31T05:07:38;17.42;;;12.95;;
18659;SDS011;9459;50.254;19.014;2023-03-31T05:10:07;18.98;;;13.13;;
18659;SDS011;9459;50.254;19.014;2023-03-31T05:12:36;18.15;;;12.73;;
18659;SDS011;9459;50.254;19.014;2023-03-31T05:15:06;18.80;;;12.35;;
18659;SDS011;9459;50.254;19.014;2023-03-31T05:17:36;18.17;;;13.40;;
18659;SDS011;9459;50.254;19.014;2023-03-31T05:20:05;16.77;;;12.18;;
18659;SDS011;9459;50.254;19.014;2023-03-31T05:22:35;17.75;;;11.77;;
18659;SDS011;9459;50.254;19.014;2023-03-31T05:25:08;17.80;;;11.68;;
18659;SDS011;9459;50.254;19.014;2023-03-31T05:27:37;16.65;;;11.40;;
18659;SDS011;9459;50.254;19.014;2023-03-31T05:30:07;19.10;;;11.30;;
18659;SDS011;9459;50.254;19.014;2023-03-31T05:32:37;13.02;;;9.75;;
18659;SDS011;9459;50.254;19.014;2023-03-31T05:35:05;14.23;;;10.02;;
18659;SDS011;9459;50.254;19.014;2023-03-31T05:37:35;13.82;;;9.48;;
18659;SDS011;9459;50.254;19.014;2023-03-31T05:40:04;15.30;;;10.73;;
18659;SDS011;9459;50.254;19.014;2023-03-31T05:42:35;15.57;;;9.32;;
18659;SDS011;9459;50.254;19.014;2023-03-31T05:45:04;12.55;;;9.15;;
18659;SDS011;9459;50.254;19.014;2023-03-31T05:47:36;11.15;;;8.30;;
18659;SDS011;9459;50.254;19.014;2023-03-31T05:50:05;10.33;;;7.50;;
18659;SDS011;9459;50.254;19.014;2023-03-31T05:52:35;11.48;;;7.50;;
18659;SDS011;9459;50.254;19.014;2023-03-31T05:55:04;10.77;;;6.88;;
18659;SDS011;9459;50.254;19.014;2023-03-31T05:57:34;9.57;;;7.30;;
18659;SDS011;9459;50.254;19.014;2023-03-31T06:00:03;9.93;;;6.85;;
18659;SDS011;9459;50.254;19.014;2023-03-31T06:02:36;8.45;;;6.43;;
18659;SDS011;9459;50.254;19.014;2023-03-31T06:05:07;9.68;;;6.15;;
18659;SDS011;9459;50.254;19.014;2023-03-31T06:07:36;11.70;;;7.15;;
18659;SDS011;9459;50.254;19.014;2023-03-31T06:10:05;12.15;;;7.30;;
18659;SDS011;9459;50.254;19.014;2023-03-31T06:12:36;11.48;;;7.03;;
18659;SDS011;9459;50.254;19.014;2023-03-31T06:15:06;12.05;;;7.15;;
18659;SDS011;9459;50.254;19.014;2023-03-31T06:17:37;10.27;;;6.27;;
18659;SDS011;9459;50.254;19.014;2023-03-31T06:20:06;10.10;;;6.90;;
18659;SDS011;9459;50.254;19.014;2023-03-31T06:22:53;9.18;;;6.28;;
18659;SDS011;9459;50.254;19.014;2023-03-31T06:25:21;10.20;;;6.32;;
18659;SDS011;9459;50.254;19.014;2023-03-31T06:27:50;9.07;;;5.75;;
18659;SDS011;9459;50.254;19.014;2023-03-31T06:30:19;10.40;;;5.50;;
18659;SDS011;9459;50.254;19.014;2023-03-31T06:32:50;8.60;;;5.18;;
18659;SDS011;9459;50.254;19.014;2023-03-31T06:35:18;11.00;;;5.85;;
18659;SDS011;9459;50.254;19.014;2023-03-31T06:37:47;7.78;;;4.70;;
18659;SDS011;9459;50.254;19.014;2023-03-31T06:40:16;7.35;;;4.30;;
18659;SDS011;9459;50.254;19.014;2023-03-31T06:42:45;8.43;;;5.20;;
18659;SDS011;9459;50.254;19.014;2023-03-31T06:45:13;7.50;;;4.38;;
18659;SDS011;9459;50.254;19.014;2023-03-31T06:47:42;6.35;;;3.88;;
18659;SDS011;9459;50.254;19.014;2023-03-31T06:50:12;8.00;;;4.38;;
18659;SDS011;9459;50.254;19.014;2023-03-31T06:52:41;7.67;;;4.50;;
18659;SDS011;9459;50.254;19.014;2023-03-31T06:55:09;7.72;;;4.93;;
18659;SDS011;9459;50.254;19.014;2023-03-31T06:57:39;7.05;;;4.75;;
18659;SDS011;9459;50.254;19.014;2023-03-31T07:00:08;8.50;;;5.55;;
18659;SDS011;9459;50.254;19.014;2023-03-31T07:02:37;8.35;;;4.55;;
18659;SDS011;9459;50.254;19.014;2023-03-31T07:05:07;9.68;;;4.40;;
18659;SDS011;9459;50.254;19.014;2023-03-31T07:07:39;6.57;;;3.70;;
18659;SDS011;9459;50.254;19.014;2023-03-31T07:10:10;6.43;;;3.42;;
18659;SDS011;9459;50.254;19.014;2023-03-31T07:12:39;4.88;;;3.40;;
18659;SDS011;9459;50.254;19.014;2023-03-31T07:15:07;4.25;;;3.10;;
18659;SDS011;9459;50.254;19.014;2023-03-31T07:17:37;6.80;;;3.30;;
18659;SDS011;9459;50.254;19.014;2023-03-31T07:20:08;5.53;;;3.33;;
18659;SDS011;9459;50.254;19.014;2023-03-31T07:22:43;8.02;;;4.53;;
18659;SDS011;9459;50.254;19.014;2023-03-31T07:25:13;5.18;;;3.45;;
18659;SDS011;9459;50.254;19.014;2023-03-31T07:27:44;5.60;;;3.45;;
18659;SDS011;9459;50.254;19.014;2023-03-31T07:30:13;5.78;;;3.35;;
18659;SDS011;9459;50.254;19.014;2023-03-31T07:35:16;6.40;;;3.05;;
18659;SDS011;9459;50.254;19.014;2023-03-31T07:37:47;4.13;;;2.70;;
18659;SDS011;9459;50.254;19.014;2023-03-31T07:40:17;4.63;;;2.70;;
18659;SDS011;9459;50.254;19.014;2023-03-31T07:42:48;5.50;;;2.90;;
18659;SDS011;9459;50.254;19.014;2023-03-31T07:45:18;4.15;;;2.35;;
18659;SDS011;9459;50.254;19.014;2023-03-31T07:47:47;4.57;;;2.28;;
18659;SDS011;9459;50.254;19.014;2023-03-31T07:50:16;4.03;;;2.38;;
18659;SDS011;9459;50.254;19.014;2023-03-31T07:52:47;5.97;;;2.53;;
18659;SDS011;9459;50.254;19.014;2023-03-31T07:55:16;3.88;;;2.00;;
18659;SDS011;9459;50.254;19.014;2023-03-31T07:57:48;3.40;;;2.05;;
18659;SDS011;9459;50.254;19.014;2023-03-31T08:00:18;4.32;;;2.20;;
18659;SDS011;9459;50.254;19.014;2023-03-31T08:02:47;2.80;;;1.90;;
18659;SDS011;9459;50.254;19.014;2023-03-31T08:05:16;5.97;;;2.20;;
18659;SDS011;9459;50.254;19.014;2023-03-31T08:07:48;3.28;;;1.83;;
18659;SDS011;9459;50.254;19.014;2023-03-31T08:12:47;4.72;;;2.05;;
18659;SDS011;9459;50.254;19.014;2023-03-31T08:15:16;7.35;;;2.42;;
18659;SDS011;9459;50.254;19.014;2023-03-31T08:17:45;5.88;;;2.20;;
18659;SDS011;9459;50.254;19.014;2023-03-31T08:20:14;5.72;;;2.20;;
18659;SDS011;9459;50.254;19.014;2023-03-31T08:22:43;5.35;;;2.90;;
18659;SDS011;9459;50.254;19.014;2023-03-31T08:25:13;4.88;;;2.47;;
18659;SDS011;9459;50.254;19.014;2023-03-31T08:27:42;5.35;;;2.78;;
18659;SDS011;9459;50.254;19.014;2023-03-31T08:30:12;4.05;;;2.05;;
18659;SDS011;9459;50.254;19.014;2023-03-31T08:32:41;4.05;;;2.30;;
18659;SDS011;9459;50.254;19.014;2023-03-31T08:35:10;5.22;;;2.30;;
18659;SDS011;9459;50.254;19.014;2023-03-31T08:37:39;4.82;;;2.40;;
18659;SDS011;9459;50.254;19.014;2023-03-31T08:40:09;5.55;;;3.58;;
18659;SDS011;9459;50.254;19.014;2023-03-31T08:42:44;4.72;;;2.90;;
18659;SDS011;9459;50.254;19.014;2023-03-31T08:45:16;3.35;;;2.08;;
18659;SDS011;9459;50.254;19.014;2023-03-31T08:47:49;5.03;;;2.42;;
18659;SDS011;9459;50.254;19.014;2023-03-31T08:50:20;4.65;;;2.75;;
18659;SDS011;9459;50.254;19.014;2023-03-31T08:52:54;6.35;;;3.20;;
18659;SDS011;9459;50.254;19.014;2023-03-31T08:55:29;6.20;;;2.92;;
18659;SDS011;9459;50.254;19.014;2023-03-31T08:58:05;5.68;;;3.30;;
18659;SDS011;9459;50.254;19.014;2023-03-31T09:00:38;6.55;;;2.53;;
18659;SDS011;9459;50.254;19.014;2023-03-31T09:03:12;4.68;;;2.58;;
18659;SDS011;9459;50.254;19.014;2023-03-31T09:05:48;3.85;;;2.50;;
18659;SDS011;9459;50.254;19.014;2023-03-31T09:08:34;5.25;;;2.55;;
18659;SDS011;9459;50.254;19.014;2023-03-31T09:11:12;5.97;;;3.95;;
18659;SDS011;9459;50.254;19.014;2023-03-31T09:13:55;6.60;;;3.55;;
18659;SDS011;9459;50.254;19.014;2023-03-31T09:16:29;5.90;;;3.15;;
18659;SDS011;9459;50.254;19.014;2023-03-31T09:19:01;5.78;;;3.22;;
18659;SDS011;9459;50.254;19.014;2023-03-31T09:21:30;5.30;;;2.92;;
18659;SDS011;9459;50.254;19.014;2023-03-31T09:24:02;6.15;;;3.33;;
18659;SDS011;9459;50.254;19.014;2023-03-31T09:26:37;5.68;;;2.80;;
18659;SDS011;9459;50.254;19.014;2023-03-31T09:29:11;6.78;;;3.15;;
18659;SDS011;9459;50.254;19.014;2023-03-31T09:31:45;4.65;;;2.72;;
18659;SDS011;9459;50.254;19.014;2023-03-31T09:34:15;8.35;;;2.20;;
18659;SDS011;9459;50.254;19.014;2023-03-31T09:36:46;4.93;;;1.95;;
18659;SDS011;9459;50.254;19.014;2023-03-31T09:39:15;5.22;;;2.83;;
18659;SDS011;9459;50.254;19.014;2023-03-31T09:41:45;5.63;;;2.58;;
18659;SDS011;9459;50.254;19.014;2023-03-31T09:44:26;4.03;;;2.33;;
18659;SDS011;9459;50.254;19.014;2023-03-31T09:46:57;5.95;;;2.20;;
18659;SDS011;9459;50.254;19.014;2023-03-31T09:49:27;5.07;;;2.47;;
18659;SDS011;9459;50.254;19.014;2023-03-31T09:52:03;6.50;;;2.83;;
18659;SDS011;9459;50.254;19.014;2023-03-31T09:54:34;7.70;;;3.10;;
18659;SDS011;9459;50.254;19.014;2023-03-31T09:57:13;4.78;;;2.90;;
18659;SDS011;9459;50.254;19.014;2023-03-31T09:59:45;5.93;;;3.42;;
18659;SDS011;9459;50.254;19.014;2023-03-31T10:02:21;7.70;;;3.75;;
18659;SDS011;9459;50.254;19.014;2023-03-31T10:04:55;5.18;;;2.95;;
18659;SDS011;9459;50.254;19.014;2023-03-31T10:07:24;7.72;;;3.45;;
18659;SDS011;9459;50.254;19.014;2023-03-31T10:09:54;6.97;;;4.00;;
18659;SDS011;9459;50.254;19.014;2023-03-31T10:12:24;6.38;;;4.40;;
18659;SDS011;9459;50.254;19.014;2023-03-31T10:15:01;5.15;;;3.25;;
18659;SDS011;9459;50.254;19.014;2023-03-31T10:17:40;6.40;;;3.45;;
18659;SDS011;9459;50.254;19.014;2023-03-31T10:20:31;6.28;;;3.20;;
18659;SDS011;9459;50.254;19.014;2023-03-31T10:23:01;6.68;;;3.15;;
18659;SDS011;9459;50.254;19.014;2023-03-31T10:25:32;11.38;;;6.72;;
18659;SDS011;9459;50.254;19.014;2023-03-31T10:28:03;7.80;;;4.35;;
18659;SDS011;9459;50.254;19.014;2023-03-31T10:30:33;9.70;;;3.97;;
18659;SDS011;9459;50.254;19.014;2023-03-31T10:33:04;4.65;;;3.13;;
18659;SDS011;9459;50.254;19.014;2023-03-31T10:35:49;6.18;;;2.60;;
18659;SDS011;9459;50.254;19.014;2023-03-31T10:38:23;4.60;;;2.30;;
18659;SDS011;9459;50.254;19.014;2023-03-31T10:40:54;5.00;;;2.38;;
18659;SDS011;9459;50.254;19.014;2023-03-31T10:43:25;5.78;;;2.42;;
18659;SDS011;9459;50.254;19.014;2023-03-31T10:45:56;9.93;;;4.38;;
18659;SDS011;9459;50.254;19.014;2023-03-31T10:48:26;6.47;;;3.08;;
18659;SDS011;9459;50.254;19.014;2023-03-31T10:51:01;5.85;;;3.20;;
18659;SDS011;9459;50.254;19.014;2023-03-31T10:53:38;7.53;;;2.85;;
18659;SDS011;9459;50.254;19.014;2023-03-31T10:56:11;8.38;;;3.00;;
18659;SDS011;9459;50.254;19.014;2023-03-31T10:58:50;7.45;;;2.92;;
18659;SDS011;9459;50.254;19.014;2023-03-31T11:01:36;6.47;;;2.90;;
18659;SDS011;9459;50.254;19.014;2023-03-31T11:07:11;5.70;;;2.40;;
18659;SDS011;9459;50.254;19.014;2023-03-31T11:09:47;7.10;;;2.90;;
18659;SDS011;9459;50.254;19.014;2023-03-31T11:12:27;6.55;;;2.90;;
18659;SDS011;9459;50.254;19.014;2023-03-31T11:15:04;6.38;;;3.05;;
18659;SDS011;9459;50.254;19.014;2023-03-31T11:17:47;9.95;;;3.78;;
18659;SDS011;9459;50.254;19.014;2023-03-31T11:20:23;8.00;;;3.42;;
18659;SDS011;9459;50.254;19.014;2023-03-31T11:22:58;5.40;;;2.72;;
18659;SDS011;9459;50.254;19.014;2023-03-31T11:25:31;5.28;;;2.53;;
18659;SDS011;9459;50.254;19.014;2023-03-31T11:31:04;6.40;;;2.63;;
18659;SDS011;9459;50.254;19.014;2023-03-31T11:33:46;5.32;;;2.45;;
18659;SDS011;9459;50.254;19.014;2023-03-31T11:36:24;8.82;;;2.58;;
18659;SDS011;9459;50.254;19.014;2023-03-31T11:39:11;9.20;;;3.60;;
18659;SDS011;9459;50.254;19.014;2023-03-31T11:41:52;10.95;;;4.75;;
18659;SDS011;9459;50.254;19.014;2023-03-31T11:44:26;8.07;;;2.60;;
18659;SDS011;9459;50.254;19.014;2023-03-31T11:46:58;6.10;;;3.00;;
18659;SDS011;9459;50.254;19.014;2023-03-31T11:49:29;7.88;;;3.38;;
18659;SDS011;9459;50.254;19.014;2023-03-31T11:52:05;7.25;;;2.83;;
18659;SDS011;9459;50.254;19.014;2023-03-31T11:54:38;6.68;;;2.67;;
18659;SDS011;9459;50.254;19.014;2023-03-31T11:57:10;11.02;;;4.53;;
18659;SDS011;9459;50.254;19.014;2023-03-31T11:59:41;10.68;;;3.35;;
18659;SDS011;9459;50.254;19.014;2023-03-31T12:02:14;6.95;;;3.20;;
18659;SDS011;9459;50.254;19.014;2023-03-31T12:04:46;5.90;;;2.88;;
18659;SDS011;9459;50.254;19.014;2023-03-31T12:07:20;10.38;;;3.58;;
18659;SDS011;9459;50.254;19.014;2023-03-31T12:09:53;6.22;;;2.58;;
18659;SDS011;9459;50.254;19.014;2023-03-31T12:12:32;7.20;;;2.97;;
18659;SDS011;9459;50.254;19.014;2023-03-31T12:17:36;6.57;;;2.58;;
18659;SDS011;9459;50.254;19.014;2023-03-31T12:20:11;7.97;;;3.80;;
18659;SDS011;9459;50.254;19.014;2023-03-31T12:22:52;10.98;;;3.60;;
18659;SDS011;9459;50.254;19.014;2023-03-31T12:25:22;52.60;;;24.80;;
18659;SDS011;9459;50.254;19.014;2023-03-31T12:27:52;38.42;;;18.27;;
18659;SDS011;9459;50.254;19.014;2023-03-31T12:30:25;17.35;;;8.63;;
18659;SDS011;9459;50.254;19.014;2023-03-31T12:32:58;10.93;;;3.58;;
18659;SDS011;9459;50.254;19.014;2023-03-31T12:35:31;21.50;;;10.55;;
18659;SDS011;9459;50.254;19.014;2023-03-31T12:38:10;22.65;;;11.13;;
18659;SDS011;9459;50.254;19.014;2023-03-31T12:40:49;19.63;;;8.48;;
18659;SDS011;9459;50.254;19.014;2023-03-31T12:43:26;16.55;;;9.20;;
18659;SDS011;9459;50.254;19.014;2023-03-31T12:46:08;18.20;;;10.43;;
18659;SDS011;9459;50.254;19.014;2023-03-31T12:48:52;12.25;;;7.07;;
18659;SDS011;9459;50.254;19.014;2023-03-31T12:51:32;10.77;;;5.70;;
18659;SDS011;9459;50.254;19.014;2023-03-31T12:54:13;8.18;;;4.15;;
18659;SDS011;9459;50.254;19.014;2023-03-31T12:57:02;6.60;;;1.90;;
18659;SDS011;9459;50.254;19.014;2023-03-31T12:59:32;6.10;;;2.10;;
18659;SDS011;9459;50.254;19.014;2023-03-31T13:02:15;6.47;;;2.10;;
18659;SDS011;9459;50.254;19.014;2023-03-31T13:04:48;8.60;;;3.38;;
18659;SDS011;9459;50.254;19.014;2023-03-31T13:07:34;4.75;;;1.75;;
18659;SDS011;9459;50.254;19.014;2023-03-31T13:12:58;5.05;;;1.98;;
18659;SDS011;9459;50.254;19.014;2023-03-31T13:15:29;5.07;;;2.05;;
18659;SDS011;9459;50.254;19.014;2023-03-31T13:17:59;7.40;;;3.20;;
18659;SDS011;9459;50.254;19.014;2023-03-31T13:20:34;8.15;;;2.80;;
18659;SDS011;9459;50.254;19.014;2023-03-31T13:23:06;5.35;;;2.15;;
18659;SDS011;9459;50.254;19.014;2023-03-31T13:25:43;6.95;;;2.35;;
18659;SDS011;9459;50.254;19.014;2023-03-31T13:28:17;6.90;;;2.67;;
18659;SDS011;9459;50.254;19.014;2023-03-31T13:30:53;5.38;;;2.25;;
18659;SDS011;9459;50.254;19.014;2023-03-31T13:33:25;5.10;;;2.25;;
18659;SDS011;9459;50.254;19.014;2023-03-31T13:36:02;5.05;;;2.17;;
18659;SDS011;9459;50.254;19.014;2023-03-31T13:39:00;3.75;;;1.70;;
18659;SDS011;9459;50.254;19.014;2023-03-31T13:41:41;4.13;;;1.90;;
18659;SDS011;9459;50.254;19.014;2023-03-31T13:44:35;5.88;;;2.42;;
18659;SDS011;9459;50.254;19.014;2023-03-31T13:50:19;6.35;;;2.55;;
18659;SDS011;9459;50.254;19.014;2023-03-31T13:53:08;5.78;;;1.67;;
18659;SDS011;9459;50.254;19.014;2023-03-31T13:58:43;3.88;;;1.70;;
18659;SDS011;9459;50.254;19.014;2023-03-31T14:01:36;5.43;;;2.20;;
18659;SDS011;9459;50.254;19.014;2023-03-31T14:04:14;5.97;;;2.00;;
18659;SDS011;9459;50.254;19.014;2023-03-31T14:06:51;5.20;;;1.77;;
18659;SDS011;9459;50.254;19.014;2023-03-31T14:09:23;7.93;;;3.05;;
18659;SDS011;9459;50.254;19.014;2023-03-31T14:11:54;4.85;;;1.90;;
18659;SDS011;9459;50.254;19.014;2023-03-31T14:14:25;5.38;;;2.05;;
18659;SDS011;9459;50.254;19.014;2023-03-31T14:16:56;7.15;;;2.67;;
18659;SDS011;9459;50.254;19.014;2023-03-31T14:19:36;3.97;;;2.05;;
18659;SDS011;9459;50.254;19.014;2023-03-31T14:22:13;6.35;;;2.45;;
18659;SDS011;9459;50.254;19.014;2023-03-31T14:24:48;6.78;;;2.15;;
18659;SDS011;9459;50.254;19.014;2023-03-31T14:27:22;6.60;;;2.10;;
18659;SDS011;9459;50.254;19.014;2023-03-31T14:29:58;8.63;;;7.72;;
18659;SDS011;9459;50.254;19.014;2023-03-31T14:32:30;5.68;;;2.42;;
18659;SDS011;9459;50.254;19.014;2023-03-31T14:35:05;26.88;;;10.20;;
18659;SDS011;9459;50.254;19.014;2023-03-31T14:37:49;6.78;;;2.80;;
18659;SDS011;9459;50.254;19.014;2023-03-31T14:40:19;8.07;;;3.22;;
18659;SDS011;9459;50.254;19.014;2023-03-31T14:42:48;8.98;;;4.00;;
18659;SDS011;9459;50.254;19.014;2023-03-31T14:45:17;7.85;;;2.83;;
18659;SDS011;9459;50.254;19.014;2023-03-31T14:47:54;10.13;;;3.40;;
18659;SDS011;9459;50.254;19.014;2023-03-31T14:50:27;10.32;;;3.83;;
18659;SDS011;9459;50.254;19.014;2023-03-31T14:52:57;10.82;;;4.10;;
18659;SDS011;9459;50.254;19.014;2023-03-31T14:55:29;14.90;;;10.98;;
18659;SDS011;9459;50.254;19.014;2023-03-31T14:58:21;9.23;;;5.60;;
18659;SDS011;9459;50.254;19.014;2023-03-31T15:00:53;11.73;;;4.80;;
18659;SDS011;9459;50.254;19.014;2023-03-31T15:03:23;7.75;;;3.60;;
18659;SDS011;9459;50.254;19.014;2023-03-31T15:05:55;14.63;;;8.00;;
18659;SDS011;9459;50.254;19.014;2023-03-31T15:10:55;7.57;;;3.75;;
18659;SDS011;9459;50.254;19.014;2023-03-31T15:13:39;6.70;;;2.72;;
18659;SDS011;9459;50.254;19.014;2023-03-31T15:16:19;8.95;;;5.50;;
18659;SDS011;9459;50.254;19.014;2023-03-31T15:18:52;8.32;;;5.20;;
18659;SDS011;9459;50.254;19.014;2023-03-31T15:21:22;9.68;;;5.82;;
18659;SDS011;9459;50.254;19.014;2023-03-31T15:23:51;6.78;;;3.45;;
18659;SDS011;9459;50.254;19.014;2023-03-31T15:26:24;8.48;;;4.07;;
18659;SDS011;9459;50.254;19.014;2023-03-31T15:29:07;14.57;;;9.38;;
18659;SDS011;9459;50.254;19.014;2023-03-31T15:31:39;14.30;;;6.90;;
18659;SDS011;9459;50.254;19.014;2023-03-31T15:34:13;11.93;;;4.95;;
18659;SDS011;9459;50.254;19.014;2023-03-31T15:36:42;10.48;;;5.72;;
18659;SDS011;9459;50.254;19.014;2023-03-31T15:39:12;10.00;;;4.25;;
18659;SDS011;9459;50.254;19.014;2023-03-31T15:41:43;14.70;;;9.65;;
18659;SDS011;9459;50.254;19.014;2023-03-31T15:44:27;14.75;;;6.18;;
18659;SDS011;9459;50.254;19.014;2023-03-31T15:47:07;16.67;;;9.05;;
18659;SDS011;9459;50.254;19.014;2023-03-31T15:49:47;31.73;;;22.75;;
18659;SDS011;9459;50.254;19.014;2023-03-31T15:52:21;13.38;;;6.38;;
18659;SDS011;9459;50.254;19.014;2023-03-31T15:54:54;16.35;;;7.18;;